• Join FlightAware (Why Join?)
  • Login
  • US Flag 
11:16AM EDT


 

Airport Tracker/Info


-or-


 

Live Flight TrackerFlight Track Log ✈ FLG3432 ✈ 03-May-2013 ✈ KALB - KMSP

Flight Track Log - Related Links

Times and Time Zones

All times are in EDT time to prevent confusion due to time zone crossing. See the FLG3432 flight status page for this flight to view local times or setup timezone preferences in your user account.

Time Position Orientation Groundspeed Altitude Reporting Facility
EDT Latitude Longitude Course Direction KTS MPH feet Rate Location/Type
06:33AM 42.7297 -73.8081 284° West 160 184 1,100  Level Boston Center
06:34AM 42.7022 -73.8528 230° Southwest 220 253 3,100 1,860 Climbing Boston Center
06:35AM 42.7533 -73.9217 315° West 284 327 5,100 2,400 Climbing Boston Center
06:36AM 42.8453 -74.4047 283° West  Level FlightAware Approximate
06:36AM 42.7842 -73.9592 318° Northwest 274 315 6,900  Level Boston Center
06:37AM 42.8773 -74.5546 304° West  Level FlightAware Approximate
06:37AM 42.8394 -74.0342 315° West 296 341 9,500  Level Boston Center
06:38AM 42.9087 -74.7055 284° West  Level FlightAware Approximate
06:38AM 42.8944 -74.1122 314° West 290 334 11,200  Level Boston Center
06:39AM 42.9722 -74.2222 314° West 323 372 13,300 2,040 Climbing Boston Center
06:40AM 43.0244 -74.3372 302° West 347 399 15,300 1,980 Climbing Boston Center
06:41AM 43.0344 -74.4825 275° West 368 423 17,300 1,620 Climbing Boston Center
06:42AM 43.0483 -74.6278 278° West 383 441 18,600 1,500 Climbing Boston Center
06:43AM 43.0581 -74.7789 275° West 398 458 20,400 1,800 Climbing Boston Center
06:44AM 43.0714 -74.9272 277° West 403 464 22,300 1,560 Climbing Boston Center
06:45AM 43.0806 -75.0839 275° West 408 470 23,600 840 Climbing Boston Center
06:46AM 43.0911 -75.2436 275° West 413 475 24,000 180 Climbing Boston Center
06:47AM 43.1042 -75.3950 277° West 431 496 24,000  Level Boston Center
06:48AM 43.1181 -75.5692 276° West 452 520 24,000  Level Boston Center
06:49AM 43.1300 -75.7378 276° West 452 520 24,000  Level Boston Center
06:51AM 43.1506 -76.0381 275° West 436 502 24,000  Level Cleveland Center
06:52AM 43.1592 -76.2111 274° West 442 509 24,000  Level Cleveland Center
06:53AM 43.1469 -76.3856 265° West 454 522 24,000  Level Cleveland Center
06:53AM 43.1319 -76.5517 263° West 459 528 24,000  Level Cleveland Center
06:54AM 43.1564 -76.7208 281° West 448 516 24,000  Level Cleveland Center
06:55AM 43.1847 -76.8844 283° West 448 516 24,000  Level Cleveland Center
06:56AM 43.2169 -77.0478 285° West 448 516 24,000  Level Cleveland Center
06:57AM 43.2428 -77.2117 282° West 448 516 24,000  Level Cleveland Center
06:59AM 43.2703 -77.3756 283° West 448 516 24,000  Level Cleveland Center
07:00AM 43.2978 -77.5397 283° West 448 516 24,000  Level Cleveland Center
07:01AM 43.3247 -77.7067 283° West 448 516 24,000  Level Cleveland Center
07:02AM 43.3517 -77.8739 283° West 448 516 24,000  Level Cleveland Center
07:02AM 43.3828 -78.0411 284° West 448 516 24,000  Level Cleveland Center
07:04AM 43.4092 -78.2114 282° West 453 521 24,000  Level Cleveland Center
07:05AM 43.4356 -78.3792 282° West 453 521 24,000  Level Cleveland Center
07:06AM 43.4567 -78.5128 282° West 453 521 24,000  Level Cleveland Center
07:06AM 43.4833 -78.6667 283° West 450 518 24,000  Level Toronto Center
07:07AM 43.5000 -78.8333 278° West 460 529 24,000  Level Toronto Center
07:08AM 43.5333 -79.0167 284° West 450 518 24,000  Level Toronto Center
07:10AM 43.5833 -79.3500 282° West 460 529 24,000  Level Toronto Center
07:11AM 43.6000 -79.5167 278° West 450 518 24,000  Level Toronto Center
07:12AM 43.6333 -79.7000 284° West 460 529 24,000  Level Toronto Center
07:13AM 43.6500 -79.8667 278° West 460 529 24,000  Level Toronto Center
07:14AM 43.6833 -80.0500 284° West 460 529 24,000  Level Toronto Center
07:15AM 43.7000 -80.2167 278° West 460 529 24,000  Level Toronto Center
07:16AM 43.7333 -80.4000 284° West 460 529 24,000  Level Toronto Center
07:17AM 43.7500 -80.5500 279° West 460 529 24,000  Level Toronto Center
07:18AM 43.7833 -80.7333 284° West 460 529 24,000  Level Toronto Center
07:19AM 43.7833 -80.9000 270° West 460 529 24,000  Level Toronto Center
07:20AM 43.8167 -81.0833 284° West 460 529 24,000  Level Toronto Center
07:21AM 43.8333 -81.2500 278° West 450 518 24,000  Level Toronto Center
07:22AM 43.8667 -81.4333 284° West 450 518 24,000  Level Toronto Center
07:23AM 43.8833 -81.6000 278° West 450 518 24,000  Level Toronto Center
07:24AM 43.9167 -81.7667 286° West 450 518 24,000  Level Toronto Center
07:25AM 43.9333 -81.9167 279° West 450 518 24,000  Level Toronto Center
07:26AM 43.9500 -82.1167 277° West 450 518 24,000  Level Toronto Center
07:27AM 43.9833 -82.2667 287° West 450 518 24,000  Level Toronto Center
07:28AM 44.0111 -82.4569 282° West 451 519 24,000  Level Minneapolis Center
07:29AM 44.0319 -82.6283 280° West 450 518 24,000  Level Minneapolis Center
07:30AM 44.0522 -82.7986 279° West 449 517 24,000  Level Minneapolis Center
07:31AM 44.0689 -82.9714 278° West 450 518 24,000  Level Minneapolis Center
07:32AM 44.0892 -83.1425 279° West 450 518 24,000  Level Minneapolis Center
07:33AM 44.1089 -83.3142 279° West 451 519 24,000  Level Minneapolis Center
07:34AM 44.1272 -83.4853 279° West 450 518 24,000  Level Minneapolis Center
07:35AM 44.1467 -83.6569 279° West 450 518 24,000  Level Minneapolis Center
07:36AM 44.1653 -83.8275 279° West 449 517 24,000  Level Minneapolis Center
07:37AM 44.1839 -83.9981 279° West 447 514 24,000  Level Minneapolis Center
07:38AM 44.2025 -84.1689 279° West 448 516 24,000  Level Minneapolis Center
07:39AM 44.2203 -84.3397 278° West 446 513 24,000  Level Minneapolis Center
07:40AM 44.2383 -84.5128 278° West 451 519 24,000  Level Minneapolis Center
07:41AM 44.2556 -84.6864 278° West 452 520 24,000  Level Minneapolis Center
07:43AM 44.2739 -84.8586 279° West 452 520 24,000  Level Minneapolis Center
07:44AM 44.2947 -85.0675 278° West 454 522 24,000  Level Minneapolis Center
07:45AM 44.3111 -85.2419 278° West 454 522 24,000  Level Minneapolis Center
07:46AM 44.3286 -85.4172 278° West 454 522 24,000  Level Minneapolis Center
07:47AM 44.3450 -85.5925 278° West 455 524 24,000  Level Minneapolis Center
07:48AM 44.3603 -85.7681 277° West 454 522 24,000  Level Minneapolis Center
07:49AM 44.3761 -85.9450 277° West 456 525 24,000  Level Minneapolis Center
07:50AM 44.3919 -86.1231 277° West 457 526 24,000  Level Minneapolis Center
07:51AM 44.4072 -86.3014 277° West 459 528 24,000  Level Minneapolis Center
07:52AM 44.4233 -86.4806 277° West 460 529 24,000  Level Minneapolis Center
07:53AM 44.4381 -86.6597 277° West 462 532 24,000  Level Minneapolis Center
07:54AM 44.4528 -86.8350 277° West 455 524 24,000  Level Minneapolis Center
07:55AM 44.4650 -86.9958 276° West 425 489 24,000  Level Minneapolis Center
07:56AM 44.4781 -87.1606 276° West 423 487 24,000  Level Minneapolis Center
07:57AM 44.4917 -87.3250 277° West 424 488 24,000  Level Minneapolis Center
07:58AM 44.5047 -87.4886 276° West 422 486 24,000  Level Minneapolis Center
07:59AM 44.5169 -87.6519 276° West 423 487 24,000  Level Minneapolis Center
08:00AM 44.5289 -87.8167 276° West 425 489 24,000  Level Minneapolis Center
08:01AM 44.5433 -88.0219 276° West 440 506 24,000  Level Minneapolis Center
08:02AM 44.5558 -88.1958 276° West 448 516 24,000  Level Minneapolis Center
08:03AM 44.5744 -88.3617 279° West 437 503 24,000  Level Minneapolis Center
08:04AM 44.5950 -88.5294 280° West 437 503 24,000  Level Minneapolis Center
08:05AM 44.6147 -88.6956 280° West 435 501 24,000  Level Minneapolis Center
08:06AM 44.6333 -88.8636 279° West 437 503 24,000  Level Minneapolis Center
08:07AM 44.6528 -89.0333 279° West 439 505 24,000  Level Minneapolis Center
08:08AM 44.6706 -89.2031 278° West 442 509 24,000  Level Minneapolis Center
08:09AM 44.6903 -89.3728 279° West 441 507 24,000  Level Minneapolis Center
08:10AM 44.7106 -89.5728 278° West 443 510 24,000  Level Minneapolis Center
08:11AM 44.7289 -89.7439 279° West 444 511 24,000  Level Minneapolis Center
08:12AM 44.7467 -89.9156 278° West 444 511 24,000  Level Minneapolis Center
08:13AM 44.7614 -90.0592 278° West 444 511 24,000  Level Minneapolis Center
08:14AM 44.7814 -90.2600 278° West 445 512 24,000  Level Minneapolis Center
08:15AM 44.7997 -90.4325 279° West 447 514 24,000  Level Minneapolis Center
08:16AM 44.8142 -90.5928 277° West 431 496 24,000  Level Minneapolis Center
08:17AM 44.8333 -90.7828 278° West 412 474 24,000  Level Minneapolis Center
08:18AM 44.8492 -90.9369 278° West 403 464 24,000 -240 Level Minneapolis Center
08:19AM 44.8636 -91.1189 276° West 393 452 23,600 -1,080 Descending Minneapolis Center
08:20AM 44.8778 -91.2731 277° West 397 457 21,900 -1,680 Descending Minneapolis Center
08:21AM 44.8914 -91.4244 277° West 394 453 20,300 -1,620 Descending Minneapolis Center
08:22AM 44.9131 -91.5719 282° West 388 447 18,700 -1,440 Descending Minneapolis Center
08:23AM 44.9439 -91.7144 287° West 379 436 17,400 -1,380 Descending Minneapolis Center
08:24AM 44.9686 -91.8539 284° West 370 426 15,900 -1,560 Descending Minneapolis Center
08:25AM 44.9953 -91.9931 285° West 370 426 14,300 -1,620 Descending Minneapolis Center
08:26AM 45.0206 -92.1283 285° West 360 414 12,700 -1,620 Descending Minneapolis Center
08:28AM 45.0478 -92.2822 284° West 339 390 11,000 -900 Descending Minneapolis Center
08:29AM 45.0311 -92.4025 259° West 314 361 10,900 -660 Descending Minneapolis Center
08:30AM 45.0142 -92.5133 258° West 292 336 9,700 -1,200 Descending Minneapolis Center
08:31AM 45.0069 -92.6231 265° West 279 321 8,500 -1,020 Descending Minneapolis Center
08:32AM 44.9669 -92.6956 232° Southwest 260 299 7,700 -780 Descending Minneapolis Center
08:33AM 44.9025 -92.7272 199° South 247 284 7,000 -780 Descending Minneapolis Center
08:34AM 44.8381 -92.7558 197° South 244 281 6,200 -780 Descending Minneapolis Center
08:35AM 44.7844 -92.7786 197° South 206 237 5,500 -780 Descending Minneapolis Center
08:36AM 44.7336 -92.7625 167° South 192 221 4,700 -780 Descending Minneapolis Center
08:37AM 44.7222 -92.8344 257° West 191 220 4,000 -360 Descending Minneapolis Center
08:38AM 44.7536 -92.8994 304° West 166 191 4,000  Level Minneapolis Center
08:39AM 44.7772 -92.9553 301° West 167 192 4,100  Climbing Minneapolis Center
08:40AM 44.8050 -93.0189 302° West 189 217 4,000 -120 Descending Minneapolis Center